Terminal Aerodrome Forecast
Issued by NWS Charleston, WV

Current Version | Previous Version | Graphics & Text | Print | Product List | Glossary On
Versions: 1 2 3 4 5 6 7 8 9 10 11 12 13 14 15 16 17 18 19 20 21 22 23
000
FTUS41 KRLX 230857 AAA
TAFCRW
TAF AMD
KCRW 230857Z 2309/2406 13005KT P6SM BKN200
     FM231600 15010G25KT P6SM SHRA OVC050
     FM232000 15010G20KT 2SM SHRA OVC040
     FM232200 17008G18KT P6SM SHRA OVC035
     FM240300 22007KT P6SM BKN025=

USA.gov is the U.S. government's official web portal to all federal, state and local government web resources and services.